Vigilant — WDE2719 — position and weather

sailwx.info

Track history (hours):
 
Tides and Currents Weather Stations Pressure Air Temp Water Temp Dewpoint Dewpoint Depression Visibility Wind Speed Wind Dir Waves Ship Positions

Vigilant

Owner: Crowley Marine Services, Seattle, WA. More information available from US FCC via Universal Licensing System and Coast Guard Vessel Documentation Center.

Last reported at 2017-Dec-17 12:00 UTC. Time now 2017-Dec-17 12:12 UTC.
Position N 48°41' W 122°44'.

Length 31 m; draft 5.7 m.

Type: Tug. MMSI: 367328780.

Date/timePositionNaut miles runAvg speedWind from/ knotsBaromVisibWave heightAir tempDewpointWater temp
2017-Dec-17 12:00N 48°41' W 122°44'2 0.8
2017-Dec-17 08:52N 48°43' W 122°44'3 9.4
2017-Dec-17 08:30N 48°40' W 122°41'4 8.3
2017-Dec-17 08:00N 48°37' W 122°38'4 8.5
2017-Dec-17 07:30N 48°33' W 122°35'3 5.2
2017-Dec-17 07:00N 48°31' W 122°35'0 0.1
2017-Dec-17 06:30N 48°31' W 122°35'2 3.2
2017-Dec-17 06:00N 48°31' W 122°37'0 0.2
2017-Dec-17 05:30N 48°31' W 122°37'0 0.0
2017-Dec-17 05:00N 48°31' W 122°37'0 0.0
2017-Dec-17 04:30N 48°31' W 122°37'0 0.0
2017-Dec-17 04:00N 48°31' W 122°37'0 0.0
2017-Dec-17 03:30N 48°31' W 122°37'0 0.0
2017-Dec-17 03:00N 48°31' W 122°37'0 0.0
2017-Dec-17 02:30N 48°31' W 122°37'0 0.0
2017-Dec-17 02:00N 48°31' W 122°37'0 0.0
2017-Dec-17 01:30N 48°31' W 122°37'0 0.0
2017-Dec-17 01:00N 48°31' W 122°37'0 0.0
2017-Dec-17 00:30N 48°31' W 122°37'2 3.3
2017-Dec-17 00:00N 48°31' W 122°35'0 0.0
2017-Dec-16 23:30N 48°31' W 122°35'1 1.3
2017-Dec-16 23:01N 48°31' W 122°35'2 4.2
2017-Dec-16 22:30N 48°33' W 122°34'3 5.1
2017-Dec-16 22:00N 48°31' W 122°37'0 0.0
2017-Dec-16 21:30N 48°31' W 122°37'0 0.0
2017-Dec-16 21:00N 48°31' W 122°37'0 0.0
2017-Dec-16 20:30N 48°31' W 122°37'0 0.0
2017-Dec-16 20:00N 48°31' W 122°37'0 0.0
2017-Dec-16 19:30N 48°31' W 122°37'0 0.0
2017-Dec-16 19:00N 48°31' W 122°37'0 0.0
2017-Dec-16 18:30N 48°31' W 122°37'0 0.0
2017-Dec-16 18:00N 48°31' W 122°37'0 0.0
2017-Dec-16 17:30N 48°31' W 122°37'0 0.0
2017-Dec-16 17:00N 48°31' W 122°37'0 0.0
2017-Dec-16 16:30N 48°31' W 122°37'0 0.0
2017-Dec-16 16:00N 48°31' W 122°37'0 0.0
2017-Dec-16 15:30N 48°31' W 122°37'0 0.0
2017-Dec-16 15:00N 48°31' W 122°37'0 0.0
2017-Dec-16 14:30N 48°31' W 122°37'0 0.0
2017-Dec-16 14:00N 48°31' W 122°37'0 0.0
2017-Dec-16 13:30N 48°31' W 122°37'0 0.0
2017-Dec-16 13:00N 48°31' W 122°37'0 0.0
2017-Dec-16 12:30N 48°31' W 122°37'2 3.0
2017-Dec-16 12:00N 48°31' W 122°35'0 0.3
2017-Dec-16 11:30N 48°31' W 122°35'0 0.2
2017-Dec-16 11:00N 48°31' W 122°35'1 2.6
2017-Dec-16 10:30N 48°31' W 122°37'0 0.0
2017-Dec-16 10:00N 48°31' W 122°37'0 0.0
2017-Dec-16 09:30N 48°31' W 122°37'0 0.0
2017-Dec-16 09:00N 48°31' W 122°37'0 0.0
2017-Dec-16 08:30N 48°31' W 122°37'0 0.0
2017-Dec-16 08:00N 48°31' W 122°37'0 0.0
2017-Dec-16 07:30N 48°31' W 122°37'0 0.0
2017-Dec-16 07:00N 48°31' W 122°37'0 0.0
2017-Dec-16 06:30N 48°31' W 122°37'0 0.0
2017-Dec-16 06:00N 48°31' W 122°37'0 0.0
2017-Dec-16 05:30N 48°31' W 122°37'0 0.0
2017-Dec-16 05:00N 48°31' W 122°37'0 0.0
2017-Dec-16 04:30N 48°31' W 122°37'0 0.0
2017-Dec-16 04:00N 48°31' W 122°37'0 0.0
2017-Dec-16 03:30N 48°31' W 122°37'0 0.0
2017-Dec-16 03:00N 48°31' W 122°37'0 0.0
2017-Dec-16 02:30N 48°31' W 122°37'0 0.0
2017-Dec-16 02:00N 48°31' W 122°37'0 0.0
2017-Dec-16 01:30N 48°31' W 122°37'0 0.0
2017-Dec-16 01:00N 48°31' W 122°37'1 2.1
2017-Dec-16 00:30N 48°32' W 122°35'4 6.9
2017-Dec-16 00:00N 48°35' W 122°36'4 8.2
2017-Dec-15 23:31N 48°38' W 122°39'4 8.3
2017-Dec-15 23:00N 48°42' W 122°43'4 8.0
2017-Dec-15 22:30N 48°46' W 122°44'1 0.2
2017-Dec-15 18:28N 48°45' W 122°44'4 8.5
2017-Dec-15 18:00N 48°41' W 122°42'4 8.3
2017-Dec-15 17:31N 48°38' W 122°38'4 8.1
2017-Dec-15 17:00N 48°34' W 122°35'4 7.3
2017-Dec-15 16:30N 48°31' W 122°34'0 0.5
2017-Dec-15 16:00N 48°31' W 122°34'1 2.1
2017-Dec-15 15:30N 48°31' W 122°35'1 2.0
2017-Dec-15 15:00N 48°31' W 122°37'0 0.0
2017-Dec-15 14:30N 48°31' W 122°37'0 0.0
2017-Dec-15 14:00N 48°31' W 122°37'0 0.0
2017-Dec-15 13:30N 48°31' W 122°37'0 0.0
2017-Dec-15 13:00N 48°31' W 122°37'0 0.0
2017-Dec-15 12:30N 48°31' W 122°37'0 0.0
2017-Dec-15 12:00N 48°31' W 122°37'0 0.0
2017-Dec-15 11:30N 48°31' W 122°37'0 0.0
2017-Dec-15 11:00N 48°31' W 122°37'0 0.0
2017-Dec-15 10:30N 48°31' W 122°37'0 0.0
2017-Dec-15 10:00N 48°31' W 122°37'0 0.0
2017-Dec-15 09:30N 48°31' W 122°37'0 0.0
2017-Dec-15 09:00N 48°31' W 122°37'0 0.0
2017-Dec-15 08:30N 48°31' W 122°37'0 0.0
2017-Dec-15 08:00N 48°31' W 122°37'0 0.0
2017-Dec-15 07:30N 48°31' W 122°37'0 0.0
2017-Dec-15 07:00N 48°31' W 122°37'0 0.0
2017-Dec-15 06:30N 48°31' W 122°37'0 0.0
2017-Dec-15 06:00N 48°31' W 122°37'0 0.4
2017-Dec-15 05:30N 48°31' W 122°37'2 3.0
2017-Dec-15 05:00N 48°31' W 122°35'0 0.0
2017-Dec-15 04:30N 48°31' W 122°35'2 3.9
2017-Dec-15 04:00N 48°32' W 122°34'2 1.5
2017-Dec-15 02:30N 48°31' W 122°37'0 0.0
2017-Dec-15 01:00N 48°31' W 122°37'0 0.0
2017-Dec-15 00:30N 48°31' W 122°37'0 0.0
2017-Dec-14 18:30N 48°31' W 122°37'0 0.0
2017-Dec-14 18:00N 48°31' W 122°37'0 0.0
2017-Dec-14 17:30N 48°31' W 122°37'0 0.0
2017-Dec-14 17:00N 48°31' W 122°37'0 0.0
2017-Dec-14 16:30N 48°31' W 122°37'0 0.0
2017-Dec-14 16:00N 48°31' W 122°37'0 0.0
2017-Dec-14 15:00N 48°31' W 122°37'4 7.3
2017-Dec-14 14:30N 48°31' W 122°42'6 9.6
2017-Dec-14 13:54N 48°26' W 122°47'4 9.2
2017-Dec-14 13:29N 48°24' W 122°52'710.2
2017-Dec-14 12:47N 48°24' W 123°03'310.4
2017-Dec-14 12:31N 48°25' W 123°07'5 9.9
2017-Dec-14 12:00N 48°28' W 123°12'611.6
2017-Dec-14 11:31N 48°34' W 123°13'610.7
2017-Dec-14 10:59N 48°39' W 123°15'4 8.4
2017-Dec-14 10:30N 48°43' W 123°13'510.2
2017-Dec-14 10:01N 48°45' W 123°06'6 9.0
2017-Dec-14 09:23N 48°49' W 122°59'9 9.9
2017-Dec-14 08:29N 48°52' W 122°46'0 0.6
2017-Dec-14 07:55N 48°52' W 122°46'4 0.3
2017-Dec-13 19:29N 48°48' W 122°43'0 0.0
2017-Dec-13 17:11N 48°48' W 122°43'0 0.0
2017-Dec-13 16:54N 48°48' W 122°43'0 0.1
2017-Dec-13 16:22N 48°48' W 122°43'0 0.0
2017-Dec-13 11:52N 48°48' W 122°43'0 0.0
2017-Dec-13 11:31N 48°48' W 122°43'0 0.0
2017-Dec-13 10:55N 48°48' W 122°43'5 1.2
2017-Dec-13 07:13N 48°44' W 122°45'312.3
2017-Dec-13 07:00N 48°41' W 122°43'510.7
2017-Dec-13 06:30N 48°37' W 122°37'2 4.4
2017-Dec-13 06:00N 48°37' W 122°34'0 0.4
2017-Dec-13 05:31N 48°37' W 122°34'0 0.7
2017-Dec-13 05:00N 48°37' W 122°34'2 3.8
2017-Dec-13 04:30N 48°37' W 122°37'3 7.0
2017-Dec-13 04:00N 48°34' W 122°40'4 7.9
2017-Dec-13 03:30N 48°31' W 122°42'4 7.0
2017-Dec-13 03:00N 48°27' W 122°44'4 8.1
2017-Dec-13 02:28N 48°23' W 122°44'26 9.4
2017-Dec-12 23:42N 47°58' W 122°34'212.6
2017-Dec-12 23:30N 47°57' W 122°31'510.9
2017-Dec-12 23:00N 47°52' W 122°28'510.6
2017-Dec-12 22:30N 47°47' W 122°26'510.3
2017-Dec-12 22:00N 47°42' W 122°26'5 9.3
2017-Dec-12 21:30N 47°37' W 122°24'3 5.4
2017-Dec-12 21:00N 47°35' W 122°21'0 0.0
2017-Dec-12 20:30N 47°35' W 122°21'0 0.0
2017-Dec-12 20:00N 47°35' W 122°21'0 0.0
2017-Dec-12 19:30N 47°35' W 122°21'0 0.0
2017-Dec-12 19:01N 47°35' W 122°21'0 0.0
2017-Dec-12 18:30N 47°35' W 122°21'0 0.0
2017-Dec-12 18:00N 47°35' W 122°21'0 0.0
2017-Dec-12 17:31N 47°35' W 122°21'0 0.0
2017-Dec-12 17:00N 47°35' W 122°21'0 0.0
2017-Dec-12 16:30N 47°35' W 122°21'0 0.0
2017-Dec-12 16:00N 47°35' W 122°21'0 0.0
2017-Dec-12 15:31N 47°35' W 122°21'0 0.2
2017-Dec-12 15:00N 47°35' W 122°21'1 1.1
2017-Dec-12 14:30N 47°36' W 122°22'4 7.4
2017-Dec-12 14:01N 47°34' W 122°26'5 9.4
2017-Dec-12 13:31N 47°29' W 122°24'5 9.4
2017-Dec-12 13:01N 47°25' W 122°22'4 8.3
2017-Dec-12 12:30N 47°21' W 122°24'4 7.3
2017-Dec-12 12:00N 47°17' W 122°26'1 1.6
2017-Dec-12 11:31N 47°17' W 122°25'1 2.6
2017-Dec-12 11:00N 47°18' W 122°26'3 5.3
2017-Dec-12 10:30N 47°20' W 122°26'3 5.8
2017-Dec-12 10:01N 47°22' W 122°23'3 5.5
2017-Dec-12 09:31N 47°25' W 122°24'3 6.8
2017-Dec-12 09:00N 47°28' W 122°26'3 6.7
2017-Dec-12 08:30N 47°32' W 122°27'3 6.9
2017-Dec-12 08:01N 47°35' W 122°28'3 6.7
2017-Dec-12 07:30N 47°38' W 122°29'4 8.2
2017-Dec-12 07:01N 47°42' W 122°28'4 8.7
2017-Dec-12 06:30N 47°47' W 122°28'5 9.4
2017-Dec-12 06:01N 47°51' W 122°29'4 8.9
2017-Dec-12 05:30N 47°56' W 122°31'26 8.5
2017-Dec-12 02:31N 48°19' W 122°47'610.2
2017-Dec-12 01:55N 48°25' W 122°45'511.3
2017-Dec-12 01:31N 48°29' W 122°44'510.2
2017-Dec-12 01:00N 48°31' W 122°37'0 0.1
2017-Dec-12 00:30N 48°31' W 122°37'0 0.0
2017-Dec-12 00:00N 48°31' W 122°37'0 0.0
2017-Dec-11 23:30N 48°31' W 122°37'0 0.0
2017-Dec-11 23:00N 48°31' W 122°37'1 2.9
2017-Dec-11 22:30N 48°31' W 122°35'0 0.1
2017-Dec-11 22:00N 48°31' W 122°35'1 2.1
2017-Dec-11 21:30N 48°32' W 122°34'510.3
2017-Dec-11 21:00N 48°36' W 122°37'510.9
2017-Dec-11 20:30N 48°41' W 122°42'4 1.5
2017-Dec-11 17:42N 48°45' W 122°44'2 9.4
2017-Dec-11 17:30N 48°43' W 122°44'5 9.6
2017-Dec-11 17:00N 48°39' W 122°40'4 8.8
2017-Dec-11 16:30N 48°35' W 122°36'4 8.0
2017-Dec-11 16:00N 48°32' W 122°35'2 3.1
2017-Dec-11 15:30N 48°31' W 122°37'0 0.0
2017-Dec-11 15:00N 48°31' W 122°37'0 0.0
2017-Dec-11 14:30N 48°31' W 122°37'0 0.0
2017-Dec-11 14:00N 48°31' W 122°37'0 0.0
2017-Dec-11 13:30N 48°31' W 122°37'0 0.0
2017-Dec-11 13:00N 48°31' W 122°37'0 0.0
2017-Dec-11 12:30N 48°31' W 122°37'0 0.0
2017-Dec-11 12:00N 48°31' W 122°37'0 0.0
2017-Dec-11 11:30N 48°31' W 122°37'0 0.0
2017-Dec-11 11:00N 48°31' W 122°37'0 0.0
2017-Dec-11 10:30N 48°31' W 122°37'0 0.0
2017-Dec-11 10:00N 48°31' W 122°37'0 0.0
2017-Dec-11 09:30N 48°31' W 122°37'0 0.0
2017-Dec-11 09:00N 48°31' W 122°37'0 0.0
2017-Dec-11 08:30N 48°31' W 122°37'0 0.0
2017-Dec-11 08:00N 48°31' W 122°37'0 0.0
2017-Dec-11 07:30N 48°31' W 122°37'0 0.0
2017-Dec-11 07:00N 48°31' W 122°37'0 0.0
2017-Dec-11 06:30N 48°31' W 122°37'0 0.0
2017-Dec-11 06:00N 48°31' W 122°37'0 0.0
2017-Dec-11 05:30N 48°31' W 122°37'0 0.0
2017-Dec-11 05:00N 48°31' W 122°37'0 0.0
2017-Dec-11 04:30N 48°31' W 122°37'0 0.0
2017-Dec-11 04:00N 48°31' W 122°37'0 0.0
2017-Dec-11 03:30N 48°31' W 122°37'0 0.0
2017-Dec-11 03:00N 48°31' W 122°37'2 3.2
2017-Dec-11 02:30N 48°31' W 122°35'0 0.0
2017-Dec-11 02:00N 48°31' W 122°35'1 2.2
2017-Dec-11 01:30N 48°32' W 122°34'1 2.4
2017-Dec-11 01:00N 48°31' W 122°36'1 1.2
2017-Dec-11 00:30N 48°31' W 122°37'0 0.0
2017-Dec-11 00:00N 48°31' W 122°37'0 0.0
2017-Dec-10 23:30N 48°31' W 122°37'0 0.0
2017-Dec-10 23:00N 48°31' W 122°37'0 0.0
2017-Dec-10 22:30N 48°31' W 122°37'0 0.0
2017-Dec-10 22:00N 48°31' W 122°37'2 3.8
2017-Dec-10 21:30N 48°32' W 122°34'4 8.9
2017-Dec-10 21:00N 48°36' W 122°37'5 9.3
2017-Dec-10 20:31N 48°40' W 122°41'4 8.9
2017-Dec-10 20:00N 48°43' W 122°44'8 8.5
2017-Dec-10 19:02N 48°52' W 122°46'0 0.0
2017-Dec-10 10:37N 48°52' W 122°46'0 0.0
2017-Dec-10 10:26N 48°52' W 122°46'2 0.1
2017-Dec-09 22:41N 48°50' W 122°45'0 0.7
2017-Dec-09 22:30N 48°50' W 122°45'1 1.9
2017-Dec-09 21:49N 48°52' W 122°46'0 0.3
2017-Dec-09 21:19N 48°52' W 122°46'8 1.7
2017-Dec-09 16:14N 48°43' W 122°44'210.2
2017-Dec-09 16:00N 48°42' W 122°42'5 9.0
2017-Dec-09 15:31N 48°38' W 122°38'4 8.5
2017-Dec-09 15:00N 48°34' W 122°35'3 5.7
2017-Dec-09 14:30N 48°31' W 122°36'0 0.3
2017-Dec-09 14:00N 48°31' W 122°36'0 0.0
2017-Dec-09 13:30N 48°31' W 122°36'0 0.0
2017-Dec-09 13:00N 48°31' W 122°36'0 0.0
2017-Dec-09 12:30N 48°31' W 122°36'0 0.0
2017-Dec-09 12:00N 48°31' W 122°36'0 0.0
2017-Dec-09 11:30N 48°31' W 122°36'0 0.0
2017-Dec-09 11:00N 48°31' W 122°36'0 0.0
2017-Dec-09 10:30N 48°31' W 122°36'0 0.0
2017-Dec-09 10:00N 48°31' W 122°36'0 0.0
2017-Dec-09 09:30N 48°31' W 122°36'0 0.0
2017-Dec-09 09:00N 48°31' W 122°36'0 0.0
2017-Dec-09 08:30N 48°31' W 122°36'0 0.0
2017-Dec-09 08:00N 48°31' W 122°36'0 0.0
2017-Dec-09 07:30N 48°31' W 122°36'0 0.0
2017-Dec-09 07:00N 48°31' W 122°36'0 0.0
2017-Dec-09 06:30N 48°31' W 122°36'0 0.0
2017-Dec-09 06:00N 48°31' W 122°36'0 0.0
2017-Dec-09 05:30N 48°31' W 122°36'0 0.0
2017-Dec-09 05:00N 48°31' W 122°36'0 0.0
2017-Dec-09 04:30N 48°31' W 122°36'0 0.0
2017-Dec-09 04:00N 48°31' W 122°36'0 0.0
2017-Dec-09 03:30N 48°31' W 122°36'0 0.0
2017-Dec-09 03:00N 48°31' W 122°36'0 0.0
2017-Dec-09 02:30N 48°31' W 122°36'0 0.0
2017-Dec-09 02:00N 48°31' W 122°36'0 0.0
2017-Dec-09 01:30N 48°31' W 122°36'0 0.0
2017-Dec-09 01:00N 48°31' W 122°36'0 0.0
2017-Dec-09 00:30N 48°31' W 122°36'1 2.5
2017-Dec-09 00:00N 48°31' W 122°35'0 0.7
2017-Dec-08 23:30N 48°31' W 122°35'1 1.8
2017-Dec-08 23:00N 48°31' W 122°36'0 0.0
2017-Dec-08 22:30N 48°31' W 122°36'0 0.0
2017-Dec-08 22:00N 48°31' W 122°36'0 0.0
2017-Dec-08 21:30N 48°31' W 122°36'0 0.0
2017-Dec-08 21:00N 48°31' W 122°36'0 0.0
2017-Dec-08 20:30N 48°31' W 122°36'0 0.0
2017-Dec-08 20:00N 48°31' W 122°36'0 0.0
2017-Dec-08 19:30N 48°31' W 122°36'0 0.0
2017-Dec-08 19:00N 48°31' W 122°36'0 0.0
2017-Dec-08 18:30N 48°31' W 122°36'0 0.0
2017-Dec-08 18:00N 48°31' W 122°36'0 0.0
2017-Dec-08 17:30N 48°31' W 122°36'0 0.0
2017-Dec-08 17:00N 48°31' W 122°36'0 0.0
2017-Dec-08 16:30N 48°31' W 122°36'0 0.0
2017-Dec-08 16:00N 48°31' W 122°36'0 0.0
2017-Dec-08 15:30N 48°31' W 122°36'2 3.8
2017-Dec-08 15:00N 48°32' W 122°34'510.2
2017-Dec-08 14:30N 48°37' W 122°37'510.4
2017-Dec-08 14:01N 48°41' W 122°42'11 4.5
2017-Dec-08 11:34N 48°52' W 122°45'0 0.0
2017-Dec-08 11:27N 48°52' W 122°45'7 5.4
2017-Dec-08 10:10N 48°49' W 122°56'510.3
2017-Dec-08 09:42N 48°46' W 123°01'2 9.7
2017-Dec-08 09:30N 48°45' W 123°04'5 9.3
2017-Dec-08 09:00N 48°43' W 123°10'4 8.0
2017-Dec-08 08:29N 48°41' W 123°15'4 8.5
2017-Dec-08 07:59N 48°37' W 123°14'4 8.6
2017-Dec-08 07:31N 48°33' W 123°12'4 8.2
2017-Dec-08 07:00N 48°29' W 123°10'4 7.8
2017-Dec-08 06:29N 48°25' W 123°10'5 9.2
2017-Dec-08 06:00N 48°21' W 123°13'610.8
2017-Dec-08 05:29N 48°16' W 123°18'511.2
2017-Dec-08 05:00N 48°12' W 123°21'4 8.8
2017-Dec-08 04:31N 48°08' W 123°25'0 0.4
2017-Dec-08 04:00N 48°08' W 123°25'0 0.7
2017-Dec-08 03:31N 48°08' W 123°25'1 1.1
2017-Dec-08 03:00N 48°08' W 123°26'0 0.0
2017-Dec-08 02:30N 48°08' W 123°26'0 0.0
2017-Dec-08 02:00N 48°08' W 123°26'0 0.0
2017-Dec-08 01:30N 48°08' W 123°26'0 0.0
2017-Dec-08 01:00N 48°08' W 123°26'0 0.0
2017-Dec-08 00:31N 48°08' W 123°26'0 0.0
2017-Dec-08 00:00N 48°08' W 123°26'0 0.0
2017-Dec-07 23:30N 48°08' W 123°26'0 0.0
2017-Dec-07 23:00N 48°08' W 123°26'0 0.0
2017-Dec-07 22:31N 48°08' W 123°26'0 0.0
2017-Dec-07 22:00N 48°08' W 123°26'0 0.0
2017-Dec-07 21:31N 48°08' W 123°26'0 0.0
2017-Dec-07 21:01N 48°08' W 123°26'0 0.0
2017-Dec-07 20:31N 48°08' W 123°26'0 0.0
2017-Dec-07 20:01N 48°08' W 123°26'0 0.0
2017-Dec-07 19:30N 48°08' W 123°26'0 0.0
2017-Dec-07 18:56N 48°08' W 123°26'0 0.0
2017-Dec-07 18:30N 48°08' W 123°26'0 0.0
2017-Dec-07 18:00N 48°08' W 123°26'0 0.0
2017-Dec-07 17:31N 48°08' W 123°26'0 0.1
2017-Dec-07 17:00N 48°08' W 123°26'0 0.0
2017-Dec-07 16:30N 48°08' W 123°26'0 0.1
2017-Dec-07 16:00N 48°08' W 123°26'1 1.6
2017-Dec-07 15:30N 48°08' W 123°25'1 1.2
2017-Dec-07 15:00N 48°08' W 123°24'0 0.0
2017-Dec-07 14:30N 48°08' W 123°24'0 0.0
2017-Dec-07 14:00N 48°08' W 123°24'1 2.7
2017-Dec-07 13:30N 48°08' W 123°26'0 0.0
2017-Dec-07 13:01N 48°08' W 123°26'0 0.0
2017-Dec-07 12:31N 48°08' W 123°26'0 0.1
2017-Dec-07 12:00N 48°08' W 123°26'  
Track history (hours):
 
Tides and Currents Weather Stations Pressure Air Temp Water Temp Dewpoint Dewpoint Depression Visibility Wind Speed Wind Dir Waves Ship Positions

Vigilant

Owner: Crowley Marine Services, Seattle, WA. More information available from US FCC via Universal Licensing System and Coast Guard Vessel Documentation Center.

Last reported at 2017-Dec-17 12:00 UTC. Time now 2017-Dec-17 12:12 UTC.
Position N 48°41' W 122°44'.

Length 31 m; draft 5.7 m.

Type: Tug. MMSI: 367328780.

Date/timePositionNaut miles runAvg speedWind from/ knotsBaromVisibWave heightAir tempDewpointWater temp
2017-Dec-17 12:00N 48°41' W 122°44'2 0.8
2017-Dec-17 08:52N 48°43' W 122°44'3 9.4
2017-Dec-17 08:30N 48°40' W 122°41'4 8.3
2017-Dec-17 08:00N 48°37' W 122°38'4 8.5
2017-Dec-17 07:30N 48°33' W 122°35'3 5.2
2017-Dec-17 07:00N 48°31' W 122°35'0 0.1
2017-Dec-17 06:30N 48°31' W 122°35'2 3.2
2017-Dec-17 06:00N 48°31' W 122°37'0 0.2
2017-Dec-17 05:30N 48°31' W 122°37'0 0.0
2017-Dec-17 05:00N 48°31' W 122°37'0 0.0
2017-Dec-17 04:30N 48°31' W 122°37'0 0.0
2017-Dec-17 04:00N 48°31' W 122°37'0 0.0
2017-Dec-17 03:30N 48°31' W 122°37'0 0.0
2017-Dec-17 03:00N 48°31' W 122°37'0 0.0
2017-Dec-17 02:30N 48°31' W 122°37'0 0.0
2017-Dec-17 02:00N 48°31' W 122°37'0 0.0
2017-Dec-17 01:30N 48°31' W 122°37'0 0.0
2017-Dec-17 01:00N 48°31' W 122°37'0 0.0
2017-Dec-17 00:30N 48°31' W 122°37'2 3.3
2017-Dec-17 00:00N 48°31' W 122°35'0 0.0
2017-Dec-16 23:30N 48°31' W 122°35'1 1.3
2017-Dec-16 23:01N 48°31' W 122°35'2 4.2
2017-Dec-16 22:30N 48°33' W 122°34'3 5.1
2017-Dec-16 22:00N 48°31' W 122°37'0 0.0
2017-Dec-16 21:30N 48°31' W 122°37'0 0.0
2017-Dec-16 21:00N 48°31' W 122°37'0 0.0
2017-Dec-16 20:30N 48°31' W 122°37'0 0.0
2017-Dec-16 20:00N 48°31' W 122°37'0 0.0
2017-Dec-16 19:30N 48°31' W 122°37'0 0.0
2017-Dec-16 19:00N 48°31' W 122°37'0 0.0
2017-Dec-16 18:30N 48°31' W 122°37'0 0.0
2017-Dec-16 18:00N 48°31' W 122°37'0 0.0
2017-Dec-16 17:30N 48°31' W 122°37'0 0.0
2017-Dec-16 17:00N 48°31' W 122°37'0 0.0
2017-Dec-16 16:30N 48°31' W 122°37'0 0.0
2017-Dec-16 16:00N 48°31' W 122°37'0 0.0
2017-Dec-16 15:30N 48°31' W 122°37'0 0.0
2017-Dec-16 15:00N 48°31' W 122°37'0 0.0
2017-Dec-16 14:30N 48°31' W 122°37'0 0.0
2017-Dec-16 14:00N 48°31' W 122°37'0 0.0
2017-Dec-16 13:30N 48°31' W 122°37'0 0.0
2017-Dec-16 13:00N 48°31' W 122°37'0 0.0
2017-Dec-16 12:30N 48°31' W 122°37'2 3.0
2017-Dec-16 12:00N 48°31' W 122°35'0 0.3
2017-Dec-16 11:30N 48°31' W 122°35'0 0.2
2017-Dec-16 11:00N 48°31' W 122°35'1 2.6
2017-Dec-16 10:30N 48°31' W 122°37'0 0.0
2017-Dec-16 10:00N 48°31' W 122°37'0 0.0
2017-Dec-16 09:30N 48°31' W 122°37'0 0.0
2017-Dec-16 09:00N 48°31' W 122°37'0 0.0
2017-Dec-16 08:30N 48°31' W 122°37'0 0.0
2017-Dec-16 08:00N 48°31' W 122°37'0 0.0
2017-Dec-16 07:30N 48°31' W 122°37'0 0.0
2017-Dec-16 07:00N 48°31' W 122°37'0 0.0
2017-Dec-16 06:30N 48°31' W 122°37'0 0.0
2017-Dec-16 06:00N 48°31' W 122°37'0 0.0
2017-Dec-16 05:30N 48°31' W 122°37'0 0.0
2017-Dec-16 05:00N 48°31' W 122°37'0 0.0
2017-Dec-16 04:30N 48°31' W 122°37'0 0.0
2017-Dec-16 04:00N 48°31' W 122°37'0 0.0
2017-Dec-16 03:30N 48°31' W 122°37'0 0.0
2017-Dec-16 03:00N 48°31' W 122°37'0 0.0
2017-Dec-16 02:30N 48°31' W 122°37'0 0.0
2017-Dec-16 02:00N 48°31' W 122°37'0 0.0
2017-Dec-16 01:30N 48°31' W 122°37'0 0.0
2017-Dec-16 01:00N 48°31' W 122°37'1 2.1
2017-Dec-16 00:30N 48°32' W 122°35'4 6.9
2017-Dec-16 00:00N 48°35' W 122°36'4 8.2
2017-Dec-15 23:31N 48°38' W 122°39'4 8.3
2017-Dec-15 23:00N 48°42' W 122°43'4 8.0
2017-Dec-15 22:30N 48°46' W 122°44'1 0.2
2017-Dec-15 18:28N 48°45' W 122°44'4 8.5
2017-Dec-15 18:00N 48°41' W 122°42'4 8.3
2017-Dec-15 17:31N 48°38' W 122°38'4 8.1
2017-Dec-15 17:00N 48°34' W 122°35'4 7.3
2017-Dec-15 16:30N 48°31' W 122°34'0 0.5
2017-Dec-15 16:00N 48°31' W 122°34'1 2.1
2017-Dec-15 15:30N 48°31' W 122°35'1 2.0
2017-Dec-15 15:00N 48°31' W 122°37'0 0.0
2017-Dec-15 14:30N 48°31' W 122°37'0 0.0
2017-Dec-15 14:00N 48°31' W 122°37'0 0.0
2017-Dec-15 13:30N 48°31' W 122°37'0 0.0
2017-Dec-15 13:00N 48°31' W 122°37'0 0.0
2017-Dec-15 12:30N 48°31' W 122°37'0 0.0
2017-Dec-15 12:00N 48°31' W 122°37'0 0.0
2017-Dec-15 11:30N 48°31' W 122°37'0 0.0
2017-Dec-15 11:00N 48°31' W 122°37'0 0.0
2017-Dec-15 10:30N 48°31' W 122°37'0 0.0
2017-Dec-15 10:00N 48°31' W 122°37'0 0.0
2017-Dec-15 09:30N 48°31' W 122°37'0 0.0
2017-Dec-15 09:00N 48°31' W 122°37'0 0.0
2017-Dec-15 08:30N 48°31' W 122°37'0 0.0
2017-Dec-15 08:00N 48°31' W 122°37'0 0.0
2017-Dec-15 07:30N 48°31' W 122°37'0 0.0
2017-Dec-15 07:00N 48°31' W 122°37'0 0.0
2017-Dec-15 06:30N 48°31' W 122°37'0 0.0
2017-Dec-15 06:00N 48°31' W 122°37'0 0.4
2017-Dec-15 05:30N 48°31' W 122°37'2 3.0
2017-Dec-15 05:00N 48°31' W 122°35'0 0.0
2017-Dec-15 04:30N 48°31' W 122°35'2 3.9
2017-Dec-15 04:00N 48°32' W 122°34'2 1.5
2017-Dec-15 02:30N 48°31' W 122°37'0 0.0
2017-Dec-15 01:00N 48°31' W 122°37'0 0.0
2017-Dec-15 00:30N 48°31' W 122°37'0 0.0
2017-Dec-14 18:30N 48°31' W 122°37'0 0.0
2017-Dec-14 18:00N 48°31' W 122°37'0 0.0
2017-Dec-14 17:30N 48°31' W 122°37'0 0.0
2017-Dec-14 17:00N 48°31' W 122°37'0 0.0
2017-Dec-14 16:30N 48°31' W 122°37'0 0.0
2017-Dec-14 16:00N 48°31' W 122°37'0 0.0
2017-Dec-14 15:00N 48°31' W 122°37'4 7.3
2017-Dec-14 14:30N 48°31' W 122°42'6 9.6
2017-Dec-14 13:54N 48°26' W 122°47'4 9.2
2017-Dec-14 13:29N 48°24' W 122°52'710.2
2017-Dec-14 12:47N 48°24' W 123°03'310.4
2017-Dec-14 12:31N 48°25' W 123°07'5 9.9
2017-Dec-14 12:00N 48°28' W 123°12'611.6
2017-Dec-14 11:31N 48°34' W 123°13'610.7
2017-Dec-14 10:59N 48°39' W 123°15'4 8.4
2017-Dec-14 10:30N 48°43' W 123°13'510.2
2017-Dec-14 10:01N 48°45' W 123°06'6 9.0
2017-Dec-14 09:23N 48°49' W 122°59'9 9.9
2017-Dec-14 08:29N 48°52' W 122°46'0 0.6
2017-Dec-14 07:55N 48°52' W 122°46'4 0.3
2017-Dec-13 19:29N 48°48' W 122°43'0 0.0
2017-Dec-13 17:11N 48°48' W 122°43'0 0.0
2017-Dec-13 16:54N 48°48' W 122°43'0 0.1
2017-Dec-13 16:22N 48°48' W 122°43'0 0.0
2017-Dec-13 11:52N 48°48' W 122°43'0 0.0
2017-Dec-13 11:31N 48°48' W 122°43'0 0.0
2017-Dec-13 10:55N 48°48' W 122°43'5 1.2
2017-Dec-13 07:13N 48°44' W 122°45'312.3
2017-Dec-13 07:00N 48°41' W 122°43'510.7
2017-Dec-13 06:30N 48°37' W 122°37'2 4.4
2017-Dec-13 06:00N 48°37' W 122°34'0 0.4
2017-Dec-13 05:31N 48°37' W 122°34'0 0.7
2017-Dec-13 05:00N 48°37' W 122°34'2 3.8
2017-Dec-13 04:30N 48°37' W 122°37'3 7.0
2017-Dec-13 04:00N 48°34' W 122°40'4 7.9
2017-Dec-13 03:30N 48°31' W 122°42'4 7.0
2017-Dec-13 03:00N 48°27' W 122°44'4 8.1
2017-Dec-13 02:28N 48°23' W 122°44'26 9.4
2017-Dec-12 23:42N 47°58' W 122°34'212.6
2017-Dec-12 23:30N 47°57' W 122°31'510.9
2017-Dec-12 23:00N 47°52' W 122°28'510.6
2017-Dec-12 22:30N 47°47' W 122°26'510.3
2017-Dec-12 22:00N 47°42' W 122°26'5 9.3
2017-Dec-12 21:30N 47°37' W 122°24'3 5.4
2017-Dec-12 21:00N 47°35' W 122°21'0 0.0
2017-Dec-12 20:30N 47°35' W 122°21'0 0.0
2017-Dec-12 20:00N 47°35' W 122°21'0 0.0
2017-Dec-12 19:30N 47°35' W 122°21'0 0.0
2017-Dec-12 19:01N 47°35' W 122°21'0 0.0
2017-Dec-12 18:30N 47°35' W 122°21'0 0.0
2017-Dec-12 18:00N 47°35' W 122°21'0 0.0
2017-Dec-12 17:31N 47°35' W 122°21'0 0.0
2017-Dec-12 17:00N 47°35' W 122°21'0 0.0
2017-Dec-12 16:30N 47°35' W 122°21'0 0.0
2017-Dec-12 16:00N 47°35' W 122°21'0 0.0
2017-Dec-12 15:31N 47°35' W 122°21'0 0.2
2017-Dec-12 15:00N 47°35' W 122°21'1 1.1
2017-Dec-12 14:30N 47°36' W 122°22'4 7.4
2017-Dec-12 14:01N 47°34' W 122°26'5 9.4
2017-Dec-12 13:31N 47°29' W 122°24'5 9.4
2017-Dec-12 13:01N 47°25' W 122°22'4 8.3
2017-Dec-12 12:30N 47°21' W 122°24'4 7.3
2017-Dec-12 12:00N 47°17' W 122°26'1 1.6
2017-Dec-12 11:31N 47°17' W 122°25'1 2.6
2017-Dec-12 11:00N 47°18' W 122°26'3 5.3
2017-Dec-12 10:30N 47°20' W 122°26'3 5.8
2017-Dec-12 10:01N 47°22' W 122°23'3 5.5
2017-Dec-12 09:31N 47°25' W 122°24'3 6.8
2017-Dec-12 09:00N 47°28' W 122°26'3 6.7
2017-Dec-12 08:30N 47°32' W 122°27'3 6.9
2017-Dec-12 08:01N 47°35' W 122°28'3 6.7
2017-Dec-12 07:30N 47°38' W 122°29'4 8.2
2017-Dec-12 07:01N 47°42' W 122°28'4 8.7
2017-Dec-12 06:30N 47°47' W 122°28'5 9.4
2017-Dec-12 06:01N 47°51' W 122°29'4 8.9
2017-Dec-12 05:30N 47°56' W 122°31'26 8.5
2017-Dec-12 02:31N 48°19' W 122°47'610.2
2017-Dec-12 01:55N 48°25' W 122°45'511.3
2017-Dec-12 01:31N 48°29' W 122°44'510.2
2017-Dec-12 01:00N 48°31' W 122°37'0 0.1
2017-Dec-12 00:30N 48°31' W 122°37'0 0.0
2017-Dec-12 00:00N 48°31' W 122°37'0 0.0
2017-Dec-11 23:30N 48°31' W 122°37'0 0.0
2017-Dec-11 23:00N 48°31' W 122°37'1 2.9
2017-Dec-11 22:30N 48°31' W 122°35'0 0.1
2017-Dec-11 22:00N 48°31' W 122°35'1 2.1
2017-Dec-11 21:30N 48°32' W 122°34'510.3
2017-Dec-11 21:00N 48°36' W 122°37'510.9
2017-Dec-11 20:30N 48°41' W 122°42'4 1.5
2017-Dec-11 17:42N 48°45' W 122°44'2 9.4
2017-Dec-11 17:30N 48°43' W 122°44'5 9.6
2017-Dec-11 17:00N 48°39' W 122°40'4 8.8
2017-Dec-11 16:30N 48°35' W 122°36'4 8.0
2017-Dec-11 16:00N 48°32' W 122°35'2 3.1
2017-Dec-11 15:30N 48°31' W 122°37'0 0.0
2017-Dec-11 15:00N 48°31' W 122°37'0 0.0
2017-Dec-11 14:30N 48°31' W 122°37'0 0.0
2017-Dec-11 14:00N 48°31' W 122°37'0 0.0
2017-Dec-11 13:30N 48°31' W 122°37'0 0.0
2017-Dec-11 13:00N 48°31' W 122°37'0 0.0
2017-Dec-11 12:30N 48°31' W 122°37'0 0.0
2017-Dec-11 12:00N 48°31' W 122°37'0 0.0
2017-Dec-11 11:30N 48°31' W 122°37'0 0.0
2017-Dec-11 11:00N 48°31' W 122°37'0 0.0
2017-Dec-11 10:30N 48°31' W 122°37'0 0.0
2017-Dec-11 10:00N 48°31' W 122°37'0 0.0
2017-Dec-11 09:30N 48°31' W 122°37'0 0.0
2017-Dec-11 09:00N 48°31' W 122°37'0 0.0
2017-Dec-11 08:30N 48°31' W 122°37'0 0.0
2017-Dec-11 08:00N 48°31' W 122°37'0 0.0
2017-Dec-11 07:30N 48°31' W 122°37'0 0.0
2017-Dec-11 07:00N 48°31' W 122°37'0 0.0
2017-Dec-11 06:30N 48°31' W 122°37'0 0.0
2017-Dec-11 06:00N 48°31' W 122°37'0 0.0
2017-Dec-11 05:30N 48°31' W 122°37'0 0.0
2017-Dec-11 05:00N 48°31' W 122°37'0 0.0
2017-Dec-11 04:30N 48°31' W 122°37'0 0.0
2017-Dec-11 04:00N 48°31' W 122°37'0 0.0
2017-Dec-11 03:30N 48°31' W 122°37'0 0.0
2017-Dec-11 03:00N 48°31' W 122°37'2 3.2
2017-Dec-11 02:30N 48°31' W 122°35'0 0.0
2017-Dec-11 02:00N 48°31' W 122°35'1 2.2
2017-Dec-11 01:30N 48°32' W 122°34'1 2.4
2017-Dec-11 01:00N 48°31' W 122°36'1 1.2
2017-Dec-11 00:30N 48°31' W 122°37'0 0.0
2017-Dec-11 00:00N 48°31' W 122°37'0 0.0
2017-Dec-10 23:30N 48°31' W 122°37'0 0.0
2017-Dec-10 23:00N 48°31' W 122°37'0 0.0
2017-Dec-10 22:30N 48°31' W 122°37'0 0.0
2017-Dec-10 22:00N 48°31' W 122°37'2 3.8
2017-Dec-10 21:30N 48°32' W 122°34'4 8.9
2017-Dec-10 21:00N 48°36' W 122°37'5 9.3
2017-Dec-10 20:31N 48°40' W 122°41'4 8.9
2017-Dec-10 20:00N 48°43' W 122°44'8 8.5
2017-Dec-10 19:02N 48°52' W 122°46'0 0.0
2017-Dec-10 10:37N 48°52' W 122°46'0 0.0
2017-Dec-10 10:26N 48°52' W 122°46'2 0.1
2017-Dec-09 22:41N 48°50' W 122°45'0 0.7
2017-Dec-09 22:30N 48°50' W 122°45'1 1.9
2017-Dec-09 21:49N 48°52' W 122°46'0 0.3
2017-Dec-09 21:19N 48°52' W 122°46'8 1.7
2017-Dec-09 16:14N 48°43' W 122°44'210.2
2017-Dec-09 16:00N 48°42' W 122°42'5 9.0
2017-Dec-09 15:31N 48°38' W 122°38'4 8.5
2017-Dec-09 15:00N 48°34' W 122°35'3 5.7
2017-Dec-09 14:30N 48°31' W 122°36'0 0.3
2017-Dec-09 14:00N 48°31' W 122°36'0 0.0
2017-Dec-09 13:30N 48°31' W 122°36'0 0.0
2017-Dec-09 13:00N 48°31' W 122°36'0 0.0
2017-Dec-09 12:30N 48°31' W 122°36'0 0.0
2017-Dec-09 12:00N 48°31' W 122°36'0 0.0
2017-Dec-09 11:30N 48°31' W 122°36'0 0.0
2017-Dec-09 11:00N 48°31' W 122°36'0 0.0
2017-Dec-09 10:30N 48°31' W 122°36'0 0.0
2017-Dec-09 10:00N 48°31' W 122°36'0 0.0
2017-Dec-09 09:30N 48°31' W 122°36'0 0.0
2017-Dec-09 09:00N 48°31' W 122°36'0 0.0
2017-Dec-09 08:30N 48°31' W 122°36'0 0.0
2017-Dec-09 08:00N 48°31' W 122°36'0 0.0
2017-Dec-09 07:30N 48°31' W 122°36'0 0.0
2017-Dec-09 07:00N 48°31' W 122°36'0 0.0
2017-Dec-09 06:30N 48°31' W 122°36'0 0.0
2017-Dec-09 06:00N 48°31' W 122°36'0 0.0
2017-Dec-09 05:30N 48°31' W 122°36'0 0.0
2017-Dec-09 05:00N 48°31' W 122°36'0 0.0
2017-Dec-09 04:30N 48°31' W 122°36'0 0.0
2017-Dec-09 04:00N 48°31' W 122°36'0 0.0
2017-Dec-09 03:30N 48°31' W 122°36'0 0.0
2017-Dec-09 03:00N 48°31' W 122°36'0 0.0
2017-Dec-09 02:30N 48°31' W 122°36'0 0.0
2017-Dec-09 02:00N 48°31' W 122°36'0 0.0
2017-Dec-09 01:30N 48°31' W 122°36'0 0.0
2017-Dec-09 01:00N 48°31' W 122°36'0 0.0
2017-Dec-09 00:30N 48°31' W 122°36'1 2.5
2017-Dec-09 00:00N 48°31' W 122°35'0 0.7
2017-Dec-08 23:30N 48°31' W 122°35'1 1.8
2017-Dec-08 23:00N 48°31' W 122°36'0 0.0
2017-Dec-08 22:30N 48°31' W 122°36'0 0.0
2017-Dec-08 22:00N 48°31' W 122°36'0 0.0
2017-Dec-08 21:30N 48°31' W 122°36'0 0.0
2017-Dec-08 21:00N 48°31' W 122°36'0 0.0
2017-Dec-08 20:30N 48°31' W 122°36'0 0.0
2017-Dec-08 20:00N 48°31' W 122°36'0 0.0
2017-Dec-08 19:30N 48°31' W 122°36'0 0.0
2017-Dec-08 19:00N 48°31' W 122°36'0 0.0
2017-Dec-08 18:30N 48°31' W 122°36'0 0.0
2017-Dec-08 18:00N 48°31' W 122°36'0 0.0
2017-Dec-08 17:30N 48°31' W 122°36'0 0.0
2017-Dec-08 17:00N 48°31' W 122°36'0 0.0
2017-Dec-08 16:30N 48°31' W 122°36'0 0.0
2017-Dec-08 16:00N 48°31' W 122°36'0 0.0
2017-Dec-08 15:30N 48°31' W 122°36'2 3.8
2017-Dec-08 15:00N 48°32' W 122°34'510.2
2017-Dec-08 14:30N 48°37' W 122°37'510.4
2017-Dec-08 14:01N 48°41' W 122°42'11 4.5
2017-Dec-08 11:34N 48°52' W 122°45'0 0.0
2017-Dec-08 11:27N 48°52' W 122°45'7 5.4
2017-Dec-08 10:10N 48°49' W 122°56'510.3
2017-Dec-08 09:42N 48°46' W 123°01'2 9.7
2017-Dec-08 09:30N 48°45' W 123°04'5 9.3
2017-Dec-08 09:00N 48°43' W 123°10'4 8.0
2017-Dec-08 08:29N 48°41' W 123°15'4 8.5
2017-Dec-08 07:59N 48°37' W 123°14'4 8.6
2017-Dec-08 07:31N 48°33' W 123°12'4 8.2
2017-Dec-08 07:00N 48°29' W 123°10'4 7.8
2017-Dec-08 06:29N 48°25' W 123°10'5 9.2
2017-Dec-08 06:00N 48°21' W 123°13'610.8
2017-Dec-08 05:29N 48°16' W 123°18'511.2
2017-Dec-08 05:00N 48°12' W 123°21'4 8.8
2017-Dec-08 04:31N 48°08' W 123°25'0 0.4
2017-Dec-08 04:00N 48°08' W 123°25'0 0.7
2017-Dec-08 03:31N 48°08' W 123°25'1 1.1
2017-Dec-08 03:00N 48°08' W 123°26'0 0.0
2017-Dec-08 02:30N 48°08' W 123°26'0 0.0
2017-Dec-08 02:00N 48°08' W 123°26'0 0.0
2017-Dec-08 01:30N 48°08' W 123°26'0 0.0
2017-Dec-08 01:00N 48°08' W 123°26'0 0.0
2017-Dec-08 00:31N 48°08' W 123°26'0 0.0
2017-Dec-08 00:00N 48°08' W 123°26'0 0.0
2017-Dec-07 23:30N 48°08' W 123°26'0 0.0
2017-Dec-07 23:00N 48°08' W 123°26'0 0.0
2017-Dec-07 22:31N 48°08' W 123°26'0 0.0
2017-Dec-07 22:00N 48°08' W 123°26'0 0.0
2017-Dec-07 21:31N 48°08' W 123°26'0 0.0
2017-Dec-07 21:01N 48°08' W 123°26'0 0.0
2017-Dec-07 20:31N 48°08' W 123°26'0 0.0
2017-Dec-07 20:01N 48°08' W 123°26'0 0.0
2017-Dec-07 19:30N 48°08' W 123°26'0 0.0
2017-Dec-07 18:56N 48°08' W 123°26'0 0.0
2017-Dec-07 18:30N 48°08' W 123°26'0 0.0
2017-Dec-07 18:00N 48°08' W 123°26'0 0.0
2017-Dec-07 17:31N 48°08' W 123°26'0 0.1
2017-Dec-07 17:00N 48°08' W 123°26'0 0.0
2017-Dec-07 16:30N 48°08' W 123°26'0 0.1
2017-Dec-07 16:00N 48°08' W 123°26'1 1.6
2017-Dec-07 15:30N 48°08' W 123°25'1 1.2
2017-Dec-07 15:00N 48°08' W 123°24'0 0.0
2017-Dec-07 14:30N 48°08' W 123°24'0 0.0
2017-Dec-07 14:00N 48°08' W 123°24'1 2.7
2017-Dec-07 13:30N 48°08' W 123°26'0 0.0
2017-Dec-07 13:01N 48°08' W 123°26'0 0.0
2017-Dec-07 12:31N 48°08' W 123°26'0 0.1
2017-Dec-07 12:00N 48°08' W 123°26'  

Dump ship's entire track history